createdAt,value
2022-08-04T00:01:40.981Z,98122.09
2022-08-04T00:04:17.116Z,98120.28
2022-08-04T00:07:06.319Z,98128.00
2022-08-04T00:09:47.584Z,98126.16
2022-08-04T00:12:19.102Z,98127.88
2022-08-04T00:14:52.204Z,98136.41
2022-08-04T00:17:30.281Z,98129.19
2022-08-04T00:20:05.107Z,98131.72
2022-08-04T00:22:39.669Z,98130.50
2022-08-04T00:25:09.255Z,98133.00
2022-08-04T00:27:39.774Z,98123.94
2022-08-04T00:30:10.387Z,98128.94
2022-08-04T00:32:43.110Z,98127.72
2022-08-04T00:35:15.773Z,98131.06
2022-08-04T00:37:47.712Z,98129.03
2022-08-04T00:40:32.445Z,98130.50
2022-08-04T00:43:16.311Z,98133.63
2022-08-04T00:46:34.618Z,98129.09
2022-08-04T00:49:45.089Z,98133.28
2022-08-04T00:52:34.131Z,98136.59
2022-08-04T00:55:24.421Z,98130.00
2022-08-04T00:58:16.423Z,98137.09
2022-08-04T01:00:55.845Z,98137.50
2022-08-04T01:03:49.208Z,98129.19
2022-08-04T01:06:36.475Z,98137.13
2022-08-04T01:09:34.295Z,98134.22
2022-08-04T01:12:39.235Z,98137.56
2022-08-04T01:15:19.196Z,98138.81
2022-08-04T01:18:05.940Z,98142.38
2022-08-04T01:21:07.566Z,98139.50
2022-08-04T01:24:13.645Z,98141.78
2022-08-04T01:26:58.042Z,98147.78
2022-08-04T01:29:47.411Z,98148.22
2022-08-04T01:32:27.652Z,98142.19
2022-08-04T01:35:21.526Z,98138.50
2022-08-04T01:38:21.939Z,98151.78
2022-08-04T01:41:15.790Z,98145.97
2022-08-04T01:44:08.270Z,98150.13
2022-08-04T01:47:01.521Z,98143.50
2022-08-04T01:49:40.064Z,98146.63
2022-08-04T01:52:11.430Z,98141.03
2022-08-04T01:54:50.446Z,98141.47
2022-08-04T01:57:38.122Z,98144.56
2022-08-04T02:00:10.901Z,98147.69
2022-08-04T02:02:41.546Z,98148.09
2022-08-04T02:05:12.524Z,98144.16
2022-08-04T02:08:07.355Z,98148.09
2022-08-04T02:10:55.684Z,98145.19
2022-08-04T02:13:39.252Z,98148.50
2022-08-04T02:16:24.260Z,98146.84
2022-08-04T02:19:05.587Z,98148.09
2022-08-04T02:21:42.350Z,98147.66
2022-08-04T02:24:18.294Z,98143.53
2022-08-04T02:26:54.376Z,98146.84
2022-08-04T02:29:36.056Z,98141.88
2022-08-04T02:32:08.275Z,98146.84
2022-08-04T02:34:49.099Z,98139.38
2022-08-04T02:37:20.341Z,98140.00
2022-08-04T02:39:55.295Z,98134.81
2022-08-04T02:42:24.554Z,98144.13
2022-08-04T02:44:55.521Z,98141.06
2022-08-04T02:48:29.478Z,98139.78
2022-08-04T02:50:28.117Z,98137.09
2022-08-04T02:53:04.351Z,98137.72
2022-08-04T02:55:50.423Z,98138.94
2022-08-04T02:58:22.396Z,98142.47
2022-08-04T03:00:53.121Z,98147.03
2022-08-04T03:03:32.303Z,98139.97
2022-08-04T03:07:00.082Z,98140.78
2022-08-04T03:10:19.605Z,98139.34
2022-08-04T03:13:39.374Z,98133.53
2022-08-04T03:17:01.898Z,98134.78
2022-08-04T03:20:09.961Z,98138.91
2022-08-04T03:23:36.280Z,98136.00
2022-08-04T03:26:47.765Z,98132.88
2022-08-04T03:29:55.364Z,98135.13
2022-08-04T03:33:25.853Z,98130.16
2022-08-04T03:37:04.611Z,98140.50
2022-08-04T03:40:17.472Z,98140.06
2022-08-04T03:43:57.257Z,98137.13
2022-08-04T03:47:03.355Z,98147.28
2022-08-04T03:50:13.051Z,98142.50
2022-08-04T03:53:31.933Z,98144.75
2022-08-04T03:56:45.419Z,98140.41
2022-08-04T03:59:52.702Z,98146.19
2022-08-04T04:02:56.311Z,98142.06
2022-08-04T04:06:15.260Z,98145.13
2022-08-04T04:09:21.448Z,98150.06
2022-08-04T04:12:24.843Z,98140.38
2022-08-04T04:15:20.731Z,98138.72
2022-08-04T04:18:32.217Z,98135.38
2022-08-04T04:21:28.179Z,98139.91
2022-08-04T04:24:35.355Z,98141.78
2022-08-04T04:27:19.881Z,98140.13
2022-08-04T04:30:08.577Z,98142.00
2022-08-04T04:33:09.086Z,98148.19
2022-08-04T04:35:56.376Z,98144.47
2022-08-04T04:38:48.751Z,98149.00
2022-08-04T04:42:00.480Z,98147.78
2022-08-04T04:45:11.073Z,98150.25
2022-08-04T04:48:09.486Z,98142.00
2022-08-04T04:51:02.273Z,98150.31
2022-08-04T04:53:46.223Z,98158.56
2022-08-04T04:56:26.662Z,98162.53
2022-08-04T04:58:58.743Z,98166.28
2022-08-04T05:02:28.914Z,98163.59
2022-08-04T05:05:38.357Z,98163.44
2022-08-04T05:08:47.449Z,98168.81
2022-08-04T05:12:06.011Z,98173.22
2022-08-04T05:14:59.577Z,98173.44
2022-08-04T05:17:38.794Z,98172.44
2022-08-04T05:20:14.905Z,98173.06
2022-08-04T05:22:54.055Z,98176.41
2022-08-04T05:25:28.287Z,98171.66
2022-08-04T05:28:05.168Z,98166.28
2022-08-04T05:30:48.283Z,98165.88
2022-08-04T05:33:29.169Z,98166.28
2022-08-04T05:36:20.401Z,98158.03
2022-08-04T05:38:59.875Z,98150.97
2022-08-04T05:41:45.000Z,98157.41
2022-08-04T05:44:18.862Z,98155.53
2022-08-04T05:46:59.812Z,98159.03
2022-08-04T05:49:31.112Z,98147.78
2022-08-04T05:52:08.282Z,98154.38
2022-08-04T05:54:44.809Z,98154.94
2022-08-04T05:57:14.857Z,98154.47
2022-08-04T05:59:51.642Z,98156.00
2022-08-04T06:02:24.941Z,98162.25
2022-08-04T06:04:57.723Z,98156.06
2022-08-04T06:07:26.794Z,98161.16
2022-08-04T06:09:56.694Z,98149.63
2022-08-04T06:12:33.728Z,98144.16
2022-08-04T06:15:04.159Z,98156.41
2022-08-04T06:19:56.437Z,98157.03
2022-08-04T06:20:37.377Z,98154.88
2022-08-04T06:23:12.457Z,98154.03
2022-08-04T06:25:49.743Z,98161.19
2022-08-04T06:28:21.544Z,98162.97
2022-08-04T06:30:53.025Z,98161.84
2022-08-04T06:33:33.188Z,98155.38
2022-08-04T06:36:25.342Z,98161.31
2022-08-04T06:38:58.466Z,98156.72
2022-08-04T06:41:29.951Z,98149.22
2022-08-04T06:44:04.547Z,98152.41
2022-08-04T06:46:45.254Z,98151.78
2022-08-04T06:49:23.579Z,98144.91
2022-08-04T06:51:59.164Z,98155.97
2022-08-04T06:54:28.312Z,98154.22
2022-08-04T06:57:00.203Z,98152.78
2022-08-04T06:59:31.015Z,98155.19
2022-08-04T07:02:01.944Z,98149.59
2022-08-04T07:04:32.921Z,98150.00
2022-08-04T07:07:06.374Z,98140.34
2022-08-04T07:09:35.933Z,98151.31
2022-08-04T07:12:07.535Z,98145.13
2022-08-04T07:14:38.307Z,98143.84
2022-08-04T07:17:11.426Z,98138.09
2022-08-04T07:19:40.806Z,98136.72
2022-08-04T07:22:25.667Z,98137.78
2022-08-04T07:24:57.477Z,98126.81
2022-08-04T07:27:47.419Z,98124.22
2022-08-04T07:30:24.460Z,98120.88
2022-08-04T07:33:02.598Z,98127.81
2022-08-04T07:36:05.426Z,98126.50
2022-08-04T07:38:27.390Z,98119.75
2022-08-04T07:40:57.997Z,98117.28
2022-08-04T07:43:27.865Z,98125.22
2022-08-04T07:45:56.864Z,98120.78
2022-08-04T07:48:26.016Z,98111.94
2022-08-04T07:50:55.215Z,98121.41
2022-08-04T07:53:53.934Z,98114.47
2022-08-04T07:56:18.046Z,98112.72
2022-08-04T07:58:47.122Z,98113.09
2022-08-04T08:01:19.953Z,98106.88
2022-08-04T08:03:50.591Z,98106.56
2022-08-04T08:06:33.156Z,98098.47
2022-08-04T08:09:13.207Z,98103.97
2022-08-04T08:12:35.188Z,98099.34
2022-08-04T08:14:35.094Z,98093.44
2022-08-04T08:17:05.099Z,98101.13
2022-08-04T08:19:35.497Z,98095.56
2022-08-04T08:22:05.566Z,98097.66
2022-08-04T08:24:38.344Z,98095.41
2022-08-04T08:27:09.042Z,98092.31
2022-08-04T08:29:41.182Z,98088.72
2022-08-04T08:32:14.039Z,98083.09
2022-08-04T08:34:45.593Z,98081.75
2022-08-04T08:37:25.258Z,98081.50
2022-08-04T08:40:05.606Z,98081.09
2022-08-04T08:43:03.669Z,98086.16
2022-08-04T08:46:12.119Z,98084.06
2022-08-04T08:49:10.026Z,98083.03
2022-08-04T08:52:09.837Z,98083.00
2022-08-04T08:55:05.185Z,98080.63
2022-08-04T08:58:13.739Z,98082.53
2022-08-04T09:00:57.936Z,98080.91
2022-08-04T09:03:55.872Z,98074.28
2022-08-04T09:06:51.987Z,98074.88
2022-08-04T09:09:50.617Z,98074.94
2022-08-04T09:12:31.822Z,98068.94
2022-08-04T09:15:07.400Z,98064.88
2022-08-04T09:17:43.635Z,98074.28
2022-08-04T09:20:22.661Z,98061.97
2022-08-04T09:22:56.876Z,98068.75
2022-08-04T09:25:32.245Z,98067.41
2022-08-04T09:28:09.501Z,98060.25
2022-08-04T09:30:46.262Z,98053.03
2022-08-04T09:33:44.897Z,98058.66
2022-08-04T09:36:26.749Z,98050.53
2022-08-04T09:39:04.210Z,98052.03
2022-08-04T09:41:49.656Z,98052.69
2022-08-04T09:44:50.228Z,98060.72
2022-08-04T09:47:39.472Z,98063.72
2022-08-04T09:50:30.030Z,98051.81
2022-08-04T09:53:07.581Z,98048.69
2022-08-04T09:56:09.554Z,98056.91
2022-08-04T09:58:51.540Z,98050.41
2022-08-04T10:01:25.437Z,98043.16
2022-08-04T10:04:00.088Z,98039.97
2022-08-04T10:06:52.785Z,98030.00
2022-08-04T10:09:44.777Z,98031.25
2022-08-04T10:12:36.789Z,98020.94
2022-08-04T10:15:11.956Z,98018.25
2022-08-04T10:18:01.009Z,98018.38
2022-08-04T10:20:52.763Z,98006.09
2022-08-04T10:23:56.738Z,98010.00
2022-08-04T10:26:46.743Z,97995.44
2022-08-04T10:29:20.609Z,98001.88
2022-08-04T10:31:56.960Z,98001.81
2022-08-04T10:34:32.948Z,98004.25
2022-08-04T10:37:07.784Z,97998.78
2022-08-04T10:40:08.130Z,97992.56
2022-08-04T10:42:43.039Z,97999.38
2022-08-04T10:45:19.488Z,97992.06
2022-08-04T10:48:01.504Z,97993.28
2022-08-04T10:50:35.792Z,97991.16
2022-08-04T10:53:10.759Z,97989.91
2022-08-04T10:56:07.613Z,97981.94
2022-08-04T10:58:51.204Z,97978.38
2022-08-04T11:02:00.078Z,97981.41
2022-08-04T11:04:29.245Z,97974.09
2022-08-04T11:07:01.350Z,97961.22
2022-08-04T11:09:31.910Z,97967.00
2022-08-04T11:12:04.750Z,97968.72
2022-08-04T11:14:39.045Z,97977.00
2022-08-04T11:17:12.194Z,97978.56
2022-08-04T11:19:53.658Z,97981.94
2022-08-04T11:22:28.354Z,97975.19
2022-08-04T11:25:09.539Z,97967.50
2022-08-04T11:27:46.209Z,97959.75
2022-08-04T11:30:17.809Z,97972.47
2022-08-04T11:32:53.095Z,97966.28
2022-08-04T11:35:30.142Z,97971.25
2022-08-04T11:38:12.579Z,97970.56
2022-08-04T11:40:57.692Z,97967.94
2022-08-04T11:44:00.608Z,97973.09
2022-08-04T11:46:36.959Z,97970.41
2022-08-04T11:49:09.595Z,97967.94
2022-08-04T11:51:39.666Z,97967.03
2022-08-04T11:54:12.758Z,97964.19
2022-08-04T11:56:42.009Z,97956.00
2022-08-04T11:59:11.424Z,97957.53
2022-08-04T12:02:01.257Z,97950.53
2022-08-04T12:04:43.160Z,97948.72
2022-08-04T12:07:41.201Z,97950.03
2022-08-04T12:10:41.017Z,97937.97
2022-08-04T12:13:25.696Z,97942.94
2022-08-04T12:16:03.627Z,97942.66
2022-08-04T12:18:39.672Z,97939.78
2022-08-04T12:21:16.201Z,97939.78
2022-08-04T12:23:46.096Z,97930.53
2022-08-04T12:26:23.839Z,97932.59
2022-08-04T12:29:16.175Z,97919.44
2022-08-04T12:31:51.192Z,97924.66
2022-08-04T12:34:30.872Z,97919.34
2022-08-04T12:37:05.980Z,97924.69
2022-08-04T12:40:21.431Z,97912.13
2022-08-04T12:42:38.188Z,97907.84
2022-08-04T12:45:10.030Z,97904.22
2022-08-04T12:47:40.458Z,97911.31
2022-08-04T12:50:11.878Z,97904.56
2022-08-04T12:53:04.266Z,97907.56
2022-08-04T12:55:37.038Z,97908.47
2022-08-04T12:58:16.371Z,97905.69
2022-08-04T13:02:09.936Z,97903.09
2022-08-04T13:04:02.268Z,97895.56
2022-08-04T13:06:34.902Z,97896.44
2022-08-04T13:09:10.662Z,97897.06
2022-08-04T13:11:54.127Z,97890.13
2022-08-04T13:14:27.853Z,97896.72
2022-08-04T13:17:01.829Z,97893.72
2022-08-04T13:19:41.156Z,97887.00
2022-08-04T13:22:12.063Z,97883.75
2022-08-04T13:24:56.582Z,97883.72
2022-08-04T13:27:42.891Z,97876.72
2022-08-04T13:30:22.719Z,97875.56
2022-08-04T13:32:57.256Z,97864.25
2022-08-04T13:35:55.691Z,97858.03
2022-08-04T13:38:20.350Z,97852.13
2022-08-04T13:40:51.497Z,97851.81
2022-08-04T13:44:16.018Z,97857.16
2022-08-04T13:46:27.959Z,97852.00
2022-08-04T13:51:58.511Z,97856.66
2022-08-04T13:54:36.056Z,97837.16
2022-08-04T13:57:16.103Z,97850.94
2022-08-04T13:59:50.513Z,97846.69
2022-08-04T14:02:34.790Z,97848.91
2022-08-04T14:05:18.725Z,97852.72
2022-08-04T14:07:51.922Z,97836.84
2022-08-04T14:10:21.227Z,97835.56
2022-08-04T14:12:52.916Z,97825.63
2022-08-04T14:16:02.195Z,97827.34
2022-08-04T14:18:29.731Z,97821.84
2022-08-04T14:21:09.385Z,97828.28
2022-08-04T14:23:48.279Z,97821.88
2022-08-04T14:26:32.914Z,97812.22
2022-08-04T14:29:28.586Z,97811.28
2022-08-04T14:32:12.996Z,97811.69
2022-08-04T14:34:46.351Z,97802.44
2022-08-04T14:37:20.294Z,97807.69
2022-08-04T14:40:07.990Z,97807.00
2022-08-04T14:42:43.371Z,97811.44
2022-08-04T14:45:13.148Z,97805.72
2022-08-04T14:47:52.260Z,97802.13
2022-08-04T14:50:33.961Z,97794.59
2022-08-04T14:53:08.562Z,97798.38
2022-08-04T14:55:38.897Z,97797.25
2022-08-04T14:58:32.620Z,97803.81
2022-08-04T15:01:01.239Z,97803.19
2022-08-04T15:03:51.060Z,97799.53
2022-08-04T15:06:26.718Z,97801.28
2022-08-04T15:08:58.259Z,97791.72
2022-08-04T15:11:28.033Z,97796.56
2022-08-04T15:13:58.872Z,97799.06
2022-08-04T15:16:31.436Z,97798.47
2022-08-04T15:19:01.875Z,97787.91
2022-08-04T15:21:34.351Z,97786.47
2022-08-04T15:24:03.504Z,97792.16
2022-08-04T15:26:37.691Z,97777.50
2022-08-04T15:29:16.697Z,97787.13
2022-08-04T15:32:06.999Z,97782.88
2022-08-04T15:34:50.658Z,97774.81
2022-08-04T15:37:29.410Z,97779.22
2022-08-04T15:40:05.165Z,97764.03
2022-08-04T15:42:37.314Z,97768.88
2022-08-04T15:45:21.672Z,97760.06
2022-08-04T15:48:34.154Z,97752.84
2022-08-04T15:51:14.147Z,97755.22
2022-08-04T15:54:21.152Z,97744.72
2022-08-04T15:57:02.528Z,97751.16
2022-08-04T16:00:01.608Z,97742.31
2022-08-04T16:02:43.546Z,97749.50
2022-08-04T16:05:42.136Z,97739.00
2022-08-04T16:08:16.432Z,97751.09
2022-08-04T16:10:50.711Z,97748.72
2022-08-04T16:13:23.279Z,97751.16
2022-08-04T16:15:54.704Z,97751.63
2022-08-04T16:18:39.598Z,97756.03
2022-08-04T16:21:19.049Z,97750.41
2022-08-04T16:24:10.222Z,97747.97
2022-08-04T16:26:54.756Z,97740.38
2022-08-04T16:29:38.937Z,97741.16
2022-08-04T16:32:21.018Z,97747.97
2022-08-04T16:34:57.022Z,97750.41
2022-08-04T16:37:32.788Z,97740.78
2022-08-04T16:40:38.040Z,97741.94
2022-08-04T16:43:10.157Z,97741.56
2022-08-04T16:45:49.672Z,97738.31
2022-08-04T16:48:20.202Z,97731.91
2022-08-04T16:51:05.366Z,97739.88
2022-08-04T16:53:51.559Z,97730.16
2022-08-04T16:56:33.716Z,97726.91
2022-08-04T16:59:10.359Z,97725.97
2022-08-04T17:01:47.527Z,97725.09
2022-08-04T17:04:16.745Z,97722.53
2022-08-04T17:06:47.436Z,97725.72
2022-08-04T17:09:22.448Z,97720.28
2022-08-04T17:11:56.155Z,97724.88
2022-08-04T17:14:27.784Z,97719.31
2022-08-04T17:17:01.682Z,97724.91
2022-08-04T17:19:30.659Z,97710.50
2022-08-04T17:22:06.623Z,97716.75
2022-08-04T17:24:38.816Z,97713.81
2022-08-04T17:28:19.003Z,97714.94
2022-08-04T17:29:57.415Z,97719.97
2022-08-04T17:32:28.130Z,97723.28
2022-08-04T17:35:03.856Z,97719.53
2022-08-04T17:37:39.249Z,97715.66
2022-08-04T17:40:17.890Z,97717.34
2022-08-04T17:43:02.970Z,97724.69
2022-08-04T17:46:28.598Z,97716.97
2022-08-04T17:49:08.069Z,97717.56
2022-08-04T17:52:05.328Z,97718.84
2022-08-04T17:54:39.130Z,97717.03
2022-08-04T17:57:20.963Z,97727.72
2022-08-04T17:59:57.819Z,97726.41
2022-08-04T18:02:32.155Z,97726.72
2022-08-04T18:05:11.579Z,97724.91
2022-08-04T18:08:39.843Z,97736.94
2022-08-04T18:10:55.078Z,97736.50
2022-08-04T18:13:29.021Z,97735.41
2022-08-04T18:16:12.559Z,97738.47
2022-08-04T18:18:48.859Z,97735.53
2022-08-04T18:21:21.009Z,97733.66
2022-08-04T18:23:52.457Z,97738.94
2022-08-04T18:26:23.737Z,97739.00
2022-08-04T18:28:53.243Z,97735.59
2022-08-04T18:31:22.230Z,97739.97
2022-08-04T18:34:03.528Z,97747.91
2022-08-04T18:36:38.077Z,97751.59
2022-08-04T18:39:12.410Z,97743.72
2022-08-04T18:42:00.755Z,97749.31
2022-08-04T18:44:52.565Z,97751.97
2022-08-04T18:47:24.951Z,97754.84
2022-08-04T18:51:01.292Z,97762.94
2022-08-04T18:52:55.760Z,97766.25
2022-08-04T18:55:57.589Z,97769.97
2022-08-04T18:58:18.794Z,97773.47
2022-08-04T19:01:00.241Z,97774.22
2022-08-04T19:06:19.396Z,97771.72
2022-08-04T19:08:56.996Z,97767.44
2022-08-04T19:11:52.570Z,97780.13
2022-08-04T19:14:17.842Z,97780.75
2022-08-04T19:16:52.038Z,97775.25
2022-08-04T19:19:40.264Z,97789.88
2022-08-04T19:22:35.478Z,97786.00
2022-08-04T19:25:09.024Z,97788.75
2022-08-04T19:27:38.844Z,97787.28
2022-08-04T19:30:11.594Z,97798.72
2022-08-04T19:32:41.723Z,97800.31
2022-08-04T19:35:20.465Z,97801.03
2022-08-04T19:38:01.010Z,97798.44
2022-08-04T19:40:40.421Z,97798.28
2022-08-04T19:43:20.325Z,97802.00
2022-08-04T19:45:51.959Z,97809.22
2022-08-04T19:48:28.713Z,97803.84
2022-08-04T19:51:00.495Z,97812.44
2022-08-04T19:53:37.894Z,97814.47
2022-08-04T19:56:19.613Z,97820.84
2022-08-04T19:58:54.675Z,97824.69
2022-08-04T20:01:32.990Z,97832.66
2022-08-04T20:04:10.385Z,97829.72
2022-08-04T20:06:40.085Z,97831.13
2022-08-04T20:09:24.785Z,97831.69
2022-08-04T20:12:01.224Z,97828.97
2022-08-04T20:14:33.526Z,97823.28
2022-08-04T20:17:10.625Z,97827.94
2022-08-04T20:19:40.710Z,97830.13
2022-08-04T20:22:52.191Z,97831.19
2022-08-04T20:25:35.873Z,97838.84
2022-08-04T20:28:00.650Z,97841.56
2022-08-04T20:30:34.157Z,97848.06
2022-08-04T20:33:04.302Z,97846.97
2022-08-04T20:35:45.942Z,97844.78
2022-08-04T20:38:32.991Z,97841.19
2022-08-04T20:41:03.446Z,97847.44
2022-08-04T20:43:37.995Z,97850.69
2022-08-04T20:46:18.167Z,97847.38
2022-08-04T20:48:50.446Z,97849.53
2022-08-04T20:51:20.244Z,97842.44
2022-08-04T20:54:16.080Z,97840.72
2022-08-04T20:56:51.256Z,97838.22
2022-08-04T20:59:24.484Z,97838.97
2022-08-04T21:01:57.968Z,97839.72
2022-08-04T21:04:35.842Z,97834.81
2022-08-04T21:07:09.549Z,97836.09
2022-08-04T21:09:49.979Z,97835.25
2022-08-04T21:12:28.514Z,97835.47
2022-08-04T21:15:14.024Z,97846.03
2022-08-04T21:20:43.403Z,97840.97
2022-08-04T21:23:12.358Z,97840.63
2022-08-04T21:25:44.035Z,97848.19
2022-08-04T21:28:20.118Z,97851.63
2022-08-04T21:33:50.988Z,97850.09
2022-08-04T21:36:21.317Z,97857.13
2022-08-04T21:38:51.243Z,97866.53
2022-08-04T21:41:25.110Z,97859.63
2022-08-04T21:43:58.931Z,97857.34
2022-08-04T21:46:30.556Z,97856.75
2022-08-04T21:49:00.688Z,97862.63
2022-08-04T21:52:00.070Z,97857.38
2022-08-04T21:54:25.824Z,97858.66
2022-08-04T21:56:54.659Z,97860.75
2022-08-04T21:59:28.537Z,97860.13
2022-08-04T22:02:02.506Z,97859.47
2022-08-04T22:04:31.965Z,97855.28
2022-08-04T22:07:02.651Z,97863.34
2022-08-04T22:09:38.869Z,97858.91
2022-08-04T22:12:12.443Z,97864.28
2022-08-04T22:14:41.631Z,97868.00
2022-08-04T22:17:20.563Z,97869.25
2022-08-04T22:19:55.039Z,97864.81
2022-08-04T22:22:29.238Z,97868.50
2022-08-04T22:25:06.158Z,97863.03
2022-08-04T22:28:02.748Z,97858.84
2022-08-04T22:30:36.829Z,97863.38
2022-08-04T22:33:09.742Z,97858.94
2022-08-04T22:35:43.865Z,97860.94
2022-08-04T22:38:25.449Z,97860.84
2022-08-04T22:40:59.970Z,97855.59
2022-08-04T22:43:32.557Z,97857.41
2022-08-04T22:46:11.942Z,97857.31
2022-08-04T22:48:44.658Z,97852.88
2022-08-04T22:51:13.893Z,97848.19
2022-08-04T22:53:48.580Z,97847.28
2022-08-04T22:56:38.196Z,97849.06
2022-08-04T22:59:09.954Z,97854.66
2022-08-04T23:01:58.328Z,97843.94
2022-08-04T23:04:33.601Z,97847.38
2022-08-04T23:07:09.598Z,97857.06
2022-08-04T23:09:50.777Z,97854.25
2022-08-04T23:12:25.933Z,97847.66
2022-08-04T23:14:58.020Z,97858.41
2022-08-04T23:17:29.113Z,97846.88
2022-08-04T23:20:00.216Z,97849.50
2022-08-04T23:22:37.489Z,97843.72
2022-08-04T23:25:15.124Z,97843.66
2022-08-04T23:27:50.966Z,97847.06
2022-08-04T23:30:24.597Z,97842.63
2022-08-04T23:32:58.732Z,97845.22
2022-08-04T23:35:29.398Z,97844.03
2022-08-04T23:37:58.316Z,97847.47
2022-08-04T23:40:33.337Z,97841.97
2022-08-04T23:43:12.186Z,97846.41
2022-08-04T23:46:04.682Z,97843.16
2022-08-04T23:48:36.628Z,97839.50
2022-08-04T23:51:15.056Z,97840.44
2022-08-04T23:54:01.495Z,97844.66
2022-08-04T23:56:33.937Z,97851.59
2022-08-04T23:59:04.554Z,97849.38
